Marola — IBFL — position and weather

sailwx.info

Track history (hours):
 
Tides and Currents Weather Stations Pressure Air Temp Water Temp Dewpoint Dewpoint Depression Visibility Wind Speed Wind Dir Waves Ship Positions

Marola

Last reported at 2014-Jun-23 12:12 UTC. Time now 2014-Aug-01 11:56 UTC.
Position N 29°58' W 090°16'.
Warning: this ship's position is 38 days out of date.

Length 180 m; draft 7.7 m.

Type: Tanker. MMSI: 247094900.

Date/timePositionNaut miles runAvg speedWind from/ knotsBaromVisibWave heightAir tempDewpointWater temp
2014-Jun-23 12:12N 29°58' W 090°16'0 0.0
2014-Jun-23 11:30N 29°58' W 090°16'0 0.0
2014-Jun-23 10:30N 29°58' W 090°16'0 0.0
2014-Jun-23 09:30N 29°58' W 090°16'0 0.0
2014-Jun-23 08:30N 29°58' W 090°16'0 0.0
2014-Jun-23 07:30N 29°58' W 090°16'0 0.0
2014-Jun-23 06:30N 29°58' W 090°16'0 0.0
2014-Jun-23 05:30N 29°58' W 090°16'0 0.0
2014-Jun-23 04:30N 29°58' W 090°16'0 0.0
2014-Jun-23 03:24N 29°58' W 090°16'0 0.0
2014-Jun-23 02:30N 29°58' W 090°16'0 0.0
2014-Jun-23 01:30N 29°58' W 090°16'0 0.0
2014-Jun-23 00:30N 29°58' W 090°16'0 0.0
2014-Jun-22 23:06N 29°58' W 090°16'0 0.0
2014-Jun-22 22:30N 29°58' W 090°16'0 0.0
2014-Jun-22 21:30N 29°58' W 090°16'0 0.0
2014-Jun-22 20:30N 29°58' W 090°16'0 0.0
2014-Jun-22 19:30N 29°58' W 090°16'0 0.0
2014-Jun-22 17:30N 29°58' W 090°16'0 0.0
2014-Jun-22 16:24N 29°58' W 090°16'0 0.0
2014-Jun-22 15:30N 29°58' W 090°16'0 0.0
2014-Jun-22 14:30N 29°58' W 090°16'0 0.0
2014-Jun-22 13:30N 29°58' W 090°16'0 0.0
2014-Jun-22 12:30N 29°58' W 090°16'0 0.0
2014-Jun-22 11:24N 29°58' W 090°16'0 0.0
2014-Jun-22 10:24N 29°58' W 090°16'0 0.0
2014-Jun-22 09:30N 29°58' W 090°16'0 0.0
2014-Jun-22 08:30N 29°58' W 090°16'0 0.0
2014-Jun-22 07:30N 29°58' W 090°16'0 0.0
2014-Jun-22 06:18N 29°58' W 090°16'0 0.0
2014-Jun-22 05:30N 29°58' W 090°16'0 0.0
2014-Jun-22 04:33N 29°58' W 090°16'0 0.0
2014-Jun-22 03:30N 29°58' W 090°16'0 0.0
2014-Jun-22 02:30N 29°58' W 090°16'0 0.0
2014-Jun-22 01:30N 29°58' W 090°16'0 0.0
2014-Jun-22 00:30N 29°58' W 090°16'0 0.0
2014-Jun-21 23:24N 29°58' W 090°16'0 0.0
2014-Jun-21 21:30N 29°58' W 090°16'0 0.0
2014-Jun-21 20:30N 29°58' W 090°16'0 0.0
2014-Jun-21 19:30N 29°58' W 090°16'0 0.0
2014-Jun-21 18:30N 29°58' W 090°16'0 0.0
2014-Jun-21 17:30N 29°58' W 090°16'0 0.0
2014-Jun-21 16:30N 29°58' W 090°16'0 0.0
2014-Jun-21 14:24N 29°58' W 090°16'0 0.0
2014-Jun-21 13:30N 29°58' W 090°16'1 0.6
2014-Jun-21 12:22N 29°58' W 090°16'5 5.6
2014-Jun-21 11:33N 29°56' W 090°11'5 5.1
2014-Jun-21 10:33N 29°55' W 090°05'5 4.9
2014-Jun-21 09:28N 29°56' W 089°59'5 4.7
2014-Jun-21 08:18N 29°50' W 089°59'810.7
2014-Jun-21 07:33N 29°43' W 089°59'38213.5
2014-Jun-20 03:12N 27°36' W 083°08'1015.8
2014-Jun-20 02:34N 27°36' W 082°57'1413.6
2014-Jun-20 01:33N 27°37' W 082°42'1312.8
2014-Jun-20 00:33N 27°46' W 082°31'10 9.7
2014-Jun-19 23:33N 27°54' W 082°26'1 1.1
2014-Jun-19 22:31N 27°54' W 082°25'0 0.0
2014-Jun-19 21:31N 27°54' W 082°25'0 0.0
2014-Jun-19 20:31N 27°54' W 082°25'0 0.0
2014-Jun-19 19:31N 27°54' W 082°25'0 0.0
2014-Jun-19 18:31N 27°54' W 082°25'0 0.0
2014-Jun-19 17:31N 27°54' W 082°25'0 0.0
2014-Jun-19 16:31N 27°54' W 082°25'0 0.0
2014-Jun-19 15:31N 27°54' W 082°25'0 0.0
2014-Jun-19 14:31N 27°54' W 082°25'0 0.0
2014-Jun-19 13:28N 27°54' W 082°25'0 0.0
2014-Jun-19 12:31N 27°54' W 082°25'0 0.0
2014-Jun-19 11:25N 27°54' W 082°25'0 0.0
2014-Jun-19 10:31N 27°54' W 082°25'0 0.0
2014-Jun-19 09:28N 27°54' W 082°25'0 0.0
2014-Jun-19 08:31N 27°54' W 082°25'0 0.0
2014-Jun-19 07:31N 27°54' W 082°25'0 0.0
2014-Jun-19 06:28N 27°54' W 082°25'0 0.0
2014-Jun-19 05:31N 27°54' W 082°25'0 0.0
2014-Jun-19 04:31N 27°54' W 082°25'0 0.0
2014-Jun-19 02:31N 27°54' W 082°25'0 0.0
2014-Jun-19 01:31N 27°54' W 082°25'0 0.0
2014-Jun-19 00:31N 27°54' W 082°25'0 0.0
2014-Jun-18 23:31N 27°54' W 082°25'0 0.4
2014-Jun-18 22:31N 27°54' W 082°25'0 0.0
2014-Jun-18 21:31N 27°54' W 082°25'0 0.0
2014-Jun-18 20:31N 27°54' W 082°25'0 0.0
2014-Jun-18 19:28N 27°54' W 082°25'0 0.0
2014-Jun-18 18:31N 27°54' W 082°25'0 0.0
2014-Jun-18 17:31N 27°54' W 082°25'0 0.0
2014-Jun-18 16:28N 27°54' W 082°25'0 0.0
2014-Jun-18 15:31N 27°54' W 082°25'0 0.0
2014-Jun-18 14:28N 27°54' W 082°25'0 0.0
2014-Jun-18 13:31N 27°54' W 082°25'0 0.0
2014-Jun-18 12:31N 27°54' W 082°25'0 0.0
2014-Jun-18 11:31N 27°54' W 082°25'0 0.0
2014-Jun-18 10:31N 27°54' W 082°25'1 1.5
2014-Jun-18 09:33N 27°53' W 082°26'1110.9
2014-Jun-18 08:33N 27°43' W 082°32'  
Track history (hours):
 
Tides and Currents Weather Stations Pressure Air Temp Water Temp Dewpoint Dewpoint Depression Visibility Wind Speed Wind Dir Waves Ship Positions

Marola

Last reported at 2014-Jun-23 12:12 UTC. Time now 2014-Aug-01 11:56 UTC.
Position N 29°58' W 090°16'.
Warning: this ship's position is 38 days out of date.

Length 180 m; draft 7.7 m.

Type: Tanker. MMSI: 247094900.

Date/timePositionNaut miles runAvg speedWind from/ knotsBaromVisibWave heightAir tempDewpointWater temp
2014-Jun-23 12:12N 29°58' W 090°16'0 0.0
2014-Jun-23 11:30N 29°58' W 090°16'0 0.0
2014-Jun-23 10:30N 29°58' W 090°16'0 0.0
2014-Jun-23 09:30N 29°58' W 090°16'0 0.0
2014-Jun-23 08:30N 29°58' W 090°16'0 0.0
2014-Jun-23 07:30N 29°58' W 090°16'0 0.0
2014-Jun-23 06:30N 29°58' W 090°16'0 0.0
2014-Jun-23 05:30N 29°58' W 090°16'0 0.0
2014-Jun-23 04:30N 29°58' W 090°16'0 0.0
2014-Jun-23 03:24N 29°58' W 090°16'0 0.0
2014-Jun-23 02:30N 29°58' W 090°16'0 0.0
2014-Jun-23 01:30N 29°58' W 090°16'0 0.0
2014-Jun-23 00:30N 29°58' W 090°16'0 0.0
2014-Jun-22 23:06N 29°58' W 090°16'0 0.0
2014-Jun-22 22:30N 29°58' W 090°16'0 0.0
2014-Jun-22 21:30N 29°58' W 090°16'0 0.0
2014-Jun-22 20:30N 29°58' W 090°16'0 0.0
2014-Jun-22 19:30N 29°58' W 090°16'0 0.0
2014-Jun-22 17:30N 29°58' W 090°16'0 0.0
2014-Jun-22 16:24N 29°58' W 090°16'0 0.0
2014-Jun-22 15:30N 29°58' W 090°16'0 0.0
2014-Jun-22 14:30N 29°58' W 090°16'0 0.0
2014-Jun-22 13:30N 29°58' W 090°16'0 0.0
2014-Jun-22 12:30N 29°58' W 090°16'0 0.0
2014-Jun-22 11:24N 29°58' W 090°16'0 0.0
2014-Jun-22 10:24N 29°58' W 090°16'0 0.0
2014-Jun-22 09:30N 29°58' W 090°16'0 0.0
2014-Jun-22 08:30N 29°58' W 090°16'0 0.0
2014-Jun-22 07:30N 29°58' W 090°16'0 0.0
2014-Jun-22 06:18N 29°58' W 090°16'0 0.0
2014-Jun-22 05:30N 29°58' W 090°16'0 0.0
2014-Jun-22 04:33N 29°58' W 090°16'0 0.0
2014-Jun-22 03:30N 29°58' W 090°16'0 0.0
2014-Jun-22 02:30N 29°58' W 090°16'0 0.0
2014-Jun-22 01:30N 29°58' W 090°16'0 0.0
2014-Jun-22 00:30N 29°58' W 090°16'0 0.0
2014-Jun-21 23:24N 29°58' W 090°16'0 0.0
2014-Jun-21 21:30N 29°58' W 090°16'0 0.0
2014-Jun-21 20:30N 29°58' W 090°16'0 0.0
2014-Jun-21 19:30N 29°58' W 090°16'0 0.0
2014-Jun-21 18:30N 29°58' W 090°16'0 0.0
2014-Jun-21 17:30N 29°58' W 090°16'0 0.0
2014-Jun-21 16:30N 29°58' W 090°16'0 0.0
2014-Jun-21 14:24N 29°58' W 090°16'0 0.0
2014-Jun-21 13:30N 29°58' W 090°16'1 0.6
2014-Jun-21 12:22N 29°58' W 090°16'5 5.6
2014-Jun-21 11:33N 29°56' W 090°11'5 5.1
2014-Jun-21 10:33N 29°55' W 090°05'5 4.9
2014-Jun-21 09:28N 29°56' W 089°59'5 4.7
2014-Jun-21 08:18N 29°50' W 089°59'810.7
2014-Jun-21 07:33N 29°43' W 089°59'38213.5
2014-Jun-20 03:12N 27°36' W 083°08'1015.8
2014-Jun-20 02:34N 27°36' W 082°57'1413.6
2014-Jun-20 01:33N 27°37' W 082°42'1312.8
2014-Jun-20 00:33N 27°46' W 082°31'10 9.7
2014-Jun-19 23:33N 27°54' W 082°26'1 1.1
2014-Jun-19 22:31N 27°54' W 082°25'0 0.0
2014-Jun-19 21:31N 27°54' W 082°25'0 0.0
2014-Jun-19 20:31N 27°54' W 082°25'0 0.0
2014-Jun-19 19:31N 27°54' W 082°25'0 0.0
2014-Jun-19 18:31N 27°54' W 082°25'0 0.0
2014-Jun-19 17:31N 27°54' W 082°25'0 0.0
2014-Jun-19 16:31N 27°54' W 082°25'0 0.0
2014-Jun-19 15:31N 27°54' W 082°25'0 0.0
2014-Jun-19 14:31N 27°54' W 082°25'0 0.0
2014-Jun-19 13:28N 27°54' W 082°25'0 0.0
2014-Jun-19 12:31N 27°54' W 082°25'0 0.0
2014-Jun-19 11:25N 27°54' W 082°25'0 0.0
2014-Jun-19 10:31N 27°54' W 082°25'0 0.0
2014-Jun-19 09:28N 27°54' W 082°25'0 0.0
2014-Jun-19 08:31N 27°54' W 082°25'0 0.0
2014-Jun-19 07:31N 27°54' W 082°25'0 0.0
2014-Jun-19 06:28N 27°54' W 082°25'0 0.0
2014-Jun-19 05:31N 27°54' W 082°25'0 0.0
2014-Jun-19 04:31N 27°54' W 082°25'0 0.0
2014-Jun-19 02:31N 27°54' W 082°25'0 0.0
2014-Jun-19 01:31N 27°54' W 082°25'0 0.0
2014-Jun-19 00:31N 27°54' W 082°25'0 0.0
2014-Jun-18 23:31N 27°54' W 082°25'0 0.4
2014-Jun-18 22:31N 27°54' W 082°25'0 0.0
2014-Jun-18 21:31N 27°54' W 082°25'0 0.0
2014-Jun-18 20:31N 27°54' W 082°25'0 0.0
2014-Jun-18 19:28N 27°54' W 082°25'0 0.0
2014-Jun-18 18:31N 27°54' W 082°25'0 0.0
2014-Jun-18 17:31N 27°54' W 082°25'0 0.0
2014-Jun-18 16:28N 27°54' W 082°25'0 0.0
2014-Jun-18 15:31N 27°54' W 082°25'0 0.0
2014-Jun-18 14:28N 27°54' W 082°25'0 0.0
2014-Jun-18 13:31N 27°54' W 082°25'0 0.0
2014-Jun-18 12:31N 27°54' W 082°25'0 0.0
2014-Jun-18 11:31N 27°54' W 082°25'0 0.0
2014-Jun-18 10:31N 27°54' W 082°25'1 1.5
2014-Jun-18 09:33N 27°53' W 082°26'1110.9
2014-Jun-18 08:33N 27°43' W 082°32'  

Dump ship's entire track history